Time;durP1;ratioP1;P1;durP2;ratioP2;P2;SDS_P1;SDS_P2;PMS_P1;PMS_P2;Temp;Humidity;BMP_temperature;BMP_pressure;BME280_temperature;BME280_humidity;BME280_pressure;Samples;Min_cycle;Max_cycle;Signal;HPM_P1;HPM_P2
2023/06/19 00:00:15;;;;;;;10.00;7.80;;;23.80;94.30;;;;;;5022626;28;20352;-85
2023/06/19 00:02:43;;;;;;;11.63;8.15;;;23.80;94.40;;;;;;5047294;28;20194;-86
2023/06/19 00:05:12;;;;;;;12.70;7.90;;;23.70;94.50;;;;;;5014265;28;20271;-86
2023/06/19 00:07:40;;;;;;;12.30;8.07;;;23.80;94.60;;;;;;5022077;28;20323;-87
2023/06/19 00:10:07;;;;;;;8.93;7.60;;;23.70;94.70;;;;;;5039791;28;20224;-86
2023/06/19 00:12:34;;;;;;;9.43;7.60;;;23.70;94.70;;;;;;5040042;28;20591;-86
2023/06/19 00:15:02;;;;;;;8.82;7.20;;;23.60;94.80;;;;;;5012849;28;20213;-86
2023/06/19 00:17:29;;;;;;;8.65;6.78;;;23.60;95.00;;;;;;5036933;28;20620;-86
2023/06/19 00:19:57;;;;;;;11.68;7.95;;;23.50;95.10;;;;;;5011838;28;20240;-87
2023/06/19 00:22:25;;;;;;;9.82;7.85;;;23.60;95.30;;;;;;5036341;28;20201;-86
2023/06/19 00:24:56;;;;;;;12.73;7.75;;;23.60;95.30;;;;;;5030833;28;20231;-85
2023/06/19 00:27:24;;;;;;;9.75;7.25;;;23.50;95.40;;;;;;5037889;28;20229;-86
2023/06/19 00:29:51;;;;;;;10.68;7.75;;;23.40;95.50;;;;;;5028833;28;20321;-87
2023/06/19 00:32:21;;;;;;;10.48;8.00;;;23.50;95.60;;;;;;5011397;28;20579;-86
2023/06/19 00:34:48;;;;;;;12.27;8.15;;;23.50;95.70;;;;;;5027702;28;20209;-87
2023/06/19 00:37:18;;;;;;;10.48;7.85;;;23.50;95.80;;;;;;5029705;28;20202;-87
2023/06/19 00:39:48;;;;;;;9.95;8.23;;;23.40;95.90;;;;;;5028503;28;20319;-85
2023/06/19 00:42:18;;;;;;;10.98;7.78;;;23.40;96.10;;;;;;5028544;28;20297;-87
2023/06/19 00:44:45;;;;;;;12.55;8.20;;;23.40;96.20;;;;;;5028397;28;20364;-86
2023/06/19 00:47:12;;;;;;;10.23;8.13;;;23.30;96.20;;;;;;5019095;28;20251;-86
2023/06/19 00:49:40;;;;;;;11.90;8.02;;;23.30;96.30;;;;;;5043257;28;20213;-85
2023/06/19 00:52:09;;;;;;;10.40;8.23;;;23.30;96.40;;;;;;5024703;28;20213;-85
2023/06/19 00:54:47;;;;;;;10.43;7.85;;;23.30;96.50;;;;;;5035203;28;20285;-85
2023/06/19 00:57:14;;;;;;;10.38;8.18;;;23.10;96.60;;;;;;5024699;28;20202;-88
2023/06/19 00:59:41;;;;;;;12.02;8.43;;;23.20;96.70;;;;;;5034977;28;20276;-87
2023/06/19 01:02:09;;;;;;;10.50;8.20;;;23.20;96.80;;;;;;5035126;28;20348;-87
2023/06/19 01:04:36;;;;;;;9.48;7.68;;;23.20;97.10;;;;;;5049392;28;20225;-86
2023/06/19 01:07:14;;;;;;;10.65;7.60;;;23.10;97.10;;;;;;5042197;28;20206;-86
2023/06/19 01:09:50;;;;;;;10.98;7.45;;;23.10;97.30;;;;;;5043501;28;20736;-85
2023/06/19 01:12:28;;;;;;;9.73;7.78;;;23.10;97.40;;;;;;5027329;28;20219;-87
2023/06/19 01:15:00;;;;;;;9.55;7.80;;;23.00;97.70;;;;;;5046457;28;20219;-87
2023/06/19 01:17:28;;;;;;;10.98;8.32;;;23.00;97.90;;;;;;5058276;28;20320;-86
2023/06/19 01:20:06;;;;;;;9.48;7.40;;;23.00;98.20;;;;;;5034347;28;20233;-87
2023/06/19 01:22:33;;;;;;;8.15;6.97;;;22.90;98.30;;;;;;5038650;28;20212;-88
2023/06/19 01:25:00;;;;;;;8.93;6.88;;;22.90;98.70;;;;;;5051089;28;20701;-87
2023/06/19 01:27:31;;;;;;;8.85;7.10;;;22.90;99.20;;;;;;5045789;28;20201;-89
2023/06/19 01:29:59;;;;;;;7.15;6.45;;;22.90;99.40;;;;;;5046008;28;21275;-87
2023/06/19 01:32:48;;;;;;;8.73;6.55;;;22.90;99.90;;;;;;5045593;28;20637;-86
2023/06/19 01:35:24;;;;;;;9.68;6.68;;;22.90;99.90;;;;;;5030085;28;20686;-86
2023/06/19 01:37:53;;;;;;;7.82;6.55;;;22.80;99.90;;;;;;5035596;28;20212;-85
2023/06/19 01:40:24;;;;;;;8.38;6.38;;;22.80;99.90;;;;;;5044652;28;20229;-86
2023/06/19 01:42:54;;;;;;;7.82;5.82;;;22.90;99.90;;;;;;5045998;28;20216;-87
2023/06/19 01:45:21;;;;;;;7.30;5.70;;;22.90;99.90;;;;;;5026083;28;20214;-86
2023/06/19 01:47:52;;;;;;;7.88;5.90;;;22.80;99.90;;;;;;5011848;28;20577;-85
2023/06/19 01:50:20;;;;;;;9.13;5.60;;;22.90;99.90;;;;;;5034260;28;20631;-87
2023/06/19 01:52:48;;;;;;;6.43;5.47;;;22.90;99.90;;;;;;5011587;28;20209;-88
2023/06/19 01:55:19;;;;;;;7.00;5.10;;;23.00;99.90;;;;;;5021540;28;20291;-85
2023/06/19 01:57:46;;;;;;;7.80;4.80;;;23.00;99.90;;;;;;5017223;28;20206;-87
2023/06/19 02:00:18;;;;;;;6.07;4.60;;;22.90;99.90;;;;;;5010798;28;20614;-86
2023/06/19 02:02:51;;;;;;;6.85;4.70;;;22.90;99.90;;;;;;5016317;28;20213;-87
2023/06/19 02:05:21;;;;;;;6.43;4.72;;;23.00;99.90;;;;;;5017681;28;20193;-85
2023/06/19 02:07:49;;;;;;;6.30;4.47;;;22.90;99.90;;;;;;5026351;28;20202;-86
2023/06/19 02:10:19;;;;;;;6.03;4.35;;;22.80;99.90;;;;;;5009642;28;20694;-87
2023/06/19 02:12:46;;;;;;;6.70;4.65;;;22.90;99.90;;;;;;5006332;28;20675;-87
2023/06/19 02:15:21;;;;;;;5.68;3.83;;;22.80;99.90;;;;;;5024692;28;20255;-87
2023/06/19 02:17:49;;;;;;;7.18;3.75;;;22.80;99.90;;;;;;5004210;28;20276;-86
2023/06/19 02:20:20;;;;;;;5.07;3.50;;;22.60;99.90;;;;;;5003806;28;20230;-86
2023/06/19 02:22:48;;;;;;;8.15;3.70;;;22.60;99.90;;;;;;5029058;28;20726;-87
2023/06/19 02:25:18;;;;;;;7.07;3.67;;;22.60;99.90;;;;;;5021312;28;20214;-88
2023/06/19 02:27:45;;;;;;;4.78;3.35;;;22.60;99.90;;;;;;5005000;28;20194;-86
2023/06/19 02:30:15;;;;;;;6.57;3.40;;;22.50;99.90;;;;;;5025408;28;20207;-86
2023/06/19 02:32:44;;;;;;;5.20;3.63;;;22.40;99.90;;;;;;5024815;28;20222;-85
2023/06/19 02:35:12;;;;;;;8.40;3.40;;;22.30;99.90;;;;;;5024804;28;20256;-88
2023/06/19 02:37:39;;;;;;;3.92;2.63;;;22.20;99.90;;;;;;5015958;28;20202;-87
2023/06/19 02:40:10;;;;;;;4.35;3.00;;;22.10;99.90;;;;;;5002030;28;20241;-86
2023/06/19 02:42:45;;;;;;;5.03;3.03;;;22.00;99.90;;;;;;5024458;28;20846;-88
2023/06/19 02:45:23;;;;;;;4.43;2.85;;;21.90;99.90;;;;;;5020367;28;20676;-90
2023/06/19 02:47:58;;;;;;;4.45;2.72;;;21.80;99.90;;;;;;5038319;28;20204;-87
2023/06/19 02:50:29;;;;;;;5.50;3.20;;;21.80;99.90;;;;;;5039440;28;20632;-87
2023/06/19 02:52:56;;;;;;;4.65;2.80;;;21.70;99.90;;;;;;5043319;28;20224;-87
2023/06/19 02:55:26;;;;;;;5.70;2.92;;;21.70;99.90;;;;;;5047371;28;20577;-87
2023/06/19 02:57:58;;;;;;;4.22;2.63;;;21.70;99.90;;;;;;5024329;28;20233;-87
2023/06/19 03:00:28;;;;;;;4.85;2.92;;;21.60;99.90;;;;;;5024453;28;20225;-89
2023/06/19 03:02:55;;;;;;;5.13;2.90;;;21.60;99.90;;;;;;5021373;28;20278;-87
2023/06/19 03:05:23;;;;;;;4.85;2.75;;;21.50;99.90;;;;;;5015580;28;20212;-87
2023/06/19 03:07:52;;;;;;;4.95;3.33;;;21.60;99.90;;;;;;5029129;28;20252;-87
2023/06/19 03:10:22;;;;;;;4.90;2.85;;;21.60;99.90;;;;;;5036872;28;20210;-86
2023/06/19 03:12:50;;;;;;;5.72;2.88;;;21.50;99.90;;;;;;5015862;28;20752;-87
2023/06/19 03:15:21;;;;;;;4.28;3.00;;;21.40;99.90;;;;;;5026620;28;20324;-86
2023/06/19 03:17:48;;;;;;;5.15;3.20;;;21.40;99.90;;;;;;5020158;28;20245;-87
2023/06/19 03:20:16;;;;;;;4.03;2.85;;;21.40;99.90;;;;;;5038338;28;20305;-88
2023/06/19 03:22:43;;;;;;;4.25;2.83;;;21.50;99.90;;;;;;5039221;28;20217;-86
2023/06/19 03:25:10;;;;;;;3.92;2.80;;;21.30;99.90;;;;;;5040044;28;20206;-86
2023/06/19 03:27:40;;;;;;;4.65;3.03;;;21.30;99.90;;;;;;5040560;28;20606;-87
2023/06/19 03:30:09;;;;;;;6.38;3.58;;;21.20;99.90;;;;;;5050537;28;20239;-88
2023/06/19 03:32:44;;;;;;;4.70;3.33;;;21.20;99.90;;;;;;5033268;28;20305;-87
2023/06/19 03:35:11;;;;;;;4.05;2.90;;;21.10;99.90;;;;;;5042353;28;20205;-87
2023/06/19 03:37:46;;;;;;;4.28;3.00;;;21.10;99.90;;;;;;5030880;28;20270;-86
2023/06/19 03:40:14;;;;;;;3.67;3.00;;;21.10;99.90;;;;;;5044700;28;20224;-87
2023/06/19 03:42:43;;;;;;;3.88;3.00;;;21.10;99.90;;;;;;5039072;28;20209;-87
2023/06/19 03:45:14;;;;;;;4.32;2.88;;;21.40;99.90;;;;;;5014478;28;20389;-87
2023/06/19 03:47:43;;;;;;;3.70;2.80;;;21.00;99.90;;;;;;5029974;28;20296;-87
2023/06/19 03:50:11;;;;;;;5.60;3.35;;;21.10;99.90;;;;;;5036511;28;20213;-87
2023/06/19 03:52:56;;;;;;;3.92;2.85;;;21.10;99.90;;;;;;5032065;28;20526;-86
2023/06/19 03:55:26;;;;;;;4.28;3.25;;;21.20;99.90;;;;;;5021980;28;20407;-87
2023/06/19 03:57:55;;;;;;;5.47;3.15;;;21.20;99.90;;;;;;5014015;28;20216;-87
2023/06/19 04:00:22;;;;;;;4.55;2.85;;;21.20;99.90;;;;;;5031260;28;20225;-86
2023/06/19 04:02:53;;;;;;;3.28;2.85;;;21.30;99.90;;;;;;5018987;28;20205;-86
2023/06/19 04:05:25;;;;;;;5.85;3.40;;;21.20;99.90;;;;;;5049747;28;20209;-86
2023/06/19 04:07:52;;;;;;;5.45;3.13;;;21.20;99.90;;;;;;5024270;28;20209;-86
2023/06/19 04:10:28;;;;;;;5.18;3.17;;;21.20;99.90;;;;;;5024385;28;20205;-89
2023/06/19 04:12:58;;;;;;;3.88;3.20;;;21.20;99.90;;;;;;5045926;28;20209;-87
2023/06/19 04:15:29;;;;;;;3.03;2.47;;;21.10;99.90;;;;;;5030887;28;20236;-88
2023/06/19 04:17:56;;;;;;;3.45;2.55;;;21.30;99.90;;;;;;5043987;28;20241;-87
2023/06/19 04:20:28;;;;;;;4.38;3.22;;;21.30;99.90;;;;;;5023695;28;20248;-87
2023/06/19 04:22:55;;;;;;;4.07;2.70;;;21.40;99.90;;;;;;5038020;28;20221;-85
2023/06/19 04:25:23;;;;;;;5.35;2.85;;;21.40;99.90;;;;;;5038899;28;20240;-86
2023/06/19 04:27:50;;;;;;;5.22;3.28;;;21.50;99.90;;;;;;5020876;28;20716;-87
2023/06/19 04:30:22;;;;;;;3.63;2.70;;;21.50;99.90;;;;;;5047569;28;20205;-88
2023/06/19 04:32:52;;;;;;;3.67;3.00;;;21.50;99.90;;;;;;5029649;28;20202;-87
2023/06/19 04:35:20;;;;;;;4.47;3.30;;;21.60;99.90;;;;;;5039784;28;20214;-85
2023/06/19 04:37:54;;;;;;;4.03;3.33;;;21.60;99.90;;;;;;5036766;28;20210;-89
2023/06/19 04:40:25;;;;;;;5.93;3.05;;;21.60;99.90;;;;;;5018232;28;20229;-86
2023/06/19 04:42:54;;;;;;;4.63;3.38;;;21.60;99.90;;;;;;5034309;28;20679;-88
2023/06/19 04:45:24;;;;;;;4.80;3.35;;;21.70;99.90;;;;;;5034665;28;20305;-87
2023/06/19 04:47:54;;;;;;;4.65;3.00;;;21.70;99.90;;;;;;5012626;28;20212;-88
2023/06/19 04:50:23;;;;;;;5.07;2.80;;;21.60;99.90;;;;;;5011666;28;20220;-88
2023/06/19 04:52:51;;;;;;;4.47;3.42;;;21.60;99.90;;;;;;5028674;28;20469;-86
2023/06/19 04:55:30;;;;;;;;;;;;;;;;;;;;;
2023/06/19 04:58:02;;;;;;;4.65;3.63;;;21.60;99.90;;;;;;5023388;28;20233;-86
2023/06/19 05:00:30;;;;;;;4.38;3.40;;;21.60;99.90;;;;;;5035932;28;20693;-86
2023/06/19 05:03:07;;;;;;;6.93;3.70;;;21.50;99.90;;;;;;5029675;28;20240;-88
2023/06/19 05:05:37;;;;;;;5.22;3.78;;;21.50;99.90;;;;;;5052863;28;20190;-86
2023/06/19 05:08:07;;;;;;;6.28;3.60;;;21.40;99.90;;;;;;5020364;28;20214;-87
2023/06/19 05:10:37;;;;;;;4.40;3.28;;;21.40;99.90;;;;;;5026685;28;20210;-84
2023/06/19 05:13:05;;;;;;;4.93;3.85;;;21.50;99.90;;;;;;5029884;28;20218;-85
2023/06/19 05:15:32;;;;;;;4.55;3.63;;;21.50;99.90;;;;;;5028644;28;20217;-87
2023/06/19 05:17:59;;;;;;;3.80;3.17;;;21.40;99.90;;;;;;5022529;28;20218;-87
2023/06/19 05:20:26;;;;;;;6.07;4.05;;;21.50;99.90;;;;;;5037456;28;20240;-86
2023/06/19 05:22:53;;;;;;;4.57;3.60;;;21.50;99.90;;;;;;5038131;28;20202;-86
2023/06/19 05:25:29;;;;;;;5.35;4.20;;;21.60;99.90;;;;;;5031012;28;20217;-87
2023/06/19 05:28:00;;;;;;;6.57;4.68;;;21.70;99.90;;;;;;5025008;28;20201;-86
2023/06/19 05:30:31;;;;;;;7.88;4.20;;;21.50;99.90;;;;;;5029677;28;20209;-86
2023/06/19 05:32:58;;;;;;;6.70;4.57;;;21.60;99.90;;;;;;5021725;28;20263;-87
2023/06/19 05:35:26;;;;;;;5.70;4.22;;;21.60;99.90;;;;;;5026573;28;20237;-86
2023/06/19 05:37:57;;;;;;;7.70;4.28;;;21.60;99.90;;;;;;5038146;28;20202;-89
2023/06/19 05:40:56;;;;;;;8.30;5.63;;;21.50;99.90;;;;;;5030943;28;20205;-86
2023/06/19 05:43:24;;;;;;;6.32;4.00;;;21.50;99.90;;;;;;5035618;28;20272;-88
2023/06/19 05:45:59;;;;;;;6.25;4.18;;;21.40;99.90;;;;;;5045353;28;20649;-86
2023/06/19 05:48:27;;;;;;;5.20;4.45;;;21.40;99.90;;;;;;5047932;28;20709;-86
2023/06/19 05:50:54;;;;;;;7.03;5.30;;;21.30;99.90;;;;;;5046609;28;20230;-86
2023/06/19 05:53:22;;;;;;;7.22;5.70;;;21.30;99.90;;;;;;5044582;28;20287;-88
2023/06/19 05:55:50;;;;;;;9.45;6.40;;;21.30;99.90;;;;;;5034196;28;20233;-87
2023/06/19 05:58:21;;;;;;;7.45;5.68;;;21.20;99.90;;;;;;5015172;28;20641;-87
2023/06/19 06:00:49;;;;;;;8.38;6.03;;;21.10;99.90;;;;;;5042906;28;20229;-89
2023/06/19 06:03:19;;;;;;;9.20;6.43;;;21.10;99.90;;;;;;5046759;28;20321;-87
2023/06/19 06:05:50;;;;;;;9.40;7.00;;;21.20;99.90;;;;;;5027791;28;20569;-85
2023/06/19 06:08:21;;;;;;;8.80;6.97;;;21.00;99.90;;;;;;5042676;28;20737;-86
2023/06/19 06:10:50;;;;;;;10.73;7.65;;;21.10;99.90;;;;;;5040499;28;20197;-86
2023/06/19 06:13:23;;;;;;;10.18;6.72;;;21.20;99.90;;;;;;5040754;28;20698;-86
2023/06/19 06:15:53;;;;;;;10.38;7.32;;;21.20;99.90;;;;;;5045500;28;20211;-87
2023/06/19 06:18:28;;;;;;;8.98;6.65;;;21.30;99.90;;;;;;5044558;28;20298;-85
2023/06/19 06:20:55;;;;;;;11.65;7.13;;;21.30;99.90;;;;;;5023533;28;20642;-88
2023/06/19 06:23:22;;;;;;;10.07;6.80;;;21.30;99.90;;;;;;5020130;28;20727;-86
2023/06/19 06:26:01;;;;;;;10.00;7.30;;;21.50;99.90;;;;;;5041119;28;20230;-87
2023/06/19 06:28:29;;;;;;;8.52;6.65;;;21.50;99.90;;;;;;5041036;28;20682;-89
2023/06/19 06:30:56;;;;;;;11.32;7.68;;;21.50;99.90;;;;;;5026501;28;20229;-87
2023/06/19 06:33:24;;;;;;;10.23;7.13;;;21.50;99.90;;;;;;5026591;28;20210;-88
2023/06/19 06:35:58;;;;;;;10.52;7.25;;;21.40;99.90;;;;;;5026206;28;20201;-88
2023/06/19 06:38:25;;;;;;;10.02;7.07;;;21.40;99.90;;;;;;5039721;28;20221;-86
2023/06/19 06:40:59;;;;;;;9.43;6.03;;;21.50;99.90;;;;;;5027394;28;20522;-87
2023/06/19 06:43:29;;;;;;;12.88;6.85;;;21.60;99.90;;;;;;5026871;28;20716;-88
2023/06/19 06:46:05;;;;;;;8.48;6.55;;;21.70;99.90;;;;;;5015369;28;20496;-88
2023/06/19 06:48:42;;;;;;;8.52;6.10;;;21.80;99.90;;;;;;5041567;28;20227;-87
2023/06/19 06:51:10;;;;;;;7.85;5.97;;;21.80;99.90;;;;;;5048733;28;20205;-86
2023/06/19 06:53:37;;;;;;;11.88;6.13;;;22.00;99.90;;;;;;5042528;28;20218;-86
2023/06/19 06:56:05;;;;;;;12.52;7.82;;;22.10;99.90;;;;;;5045519;28;20213;-87
2023/06/19 06:58:32;;;;;;;9.65;6.07;;;22.10;99.90;;;;;;5039384;28;20571;-90
2023/06/19 07:00:59;;;;;;;10.40;7.20;;;22.10;99.90;;;;;;5041214;28;20270;-88
2023/06/19 07:03:29;;;;;;;10.05;6.70;;;22.10;99.90;;;;;;5043790;28;20208;-86
2023/06/19 07:05:58;;;;;;;9.65;6.07;;;22.10;99.90;;;;;;5026121;28;20201;-88
2023/06/19 07:08:28;;;;;;;7.93;6.18;;;22.20;99.90;;;;;;5025357;28;20217;-87
2023/06/19 07:11:04;;;;;;;10.73;6.22;;;22.30;99.90;;;;;;5043170;28;20209;-86
2023/06/19 07:13:32;;;;;;;9.68;6.18;;;22.20;99.90;;;;;;5041517;28;20212;-87
2023/06/19 07:16:01;;;;;;;9.10;6.22;;;22.10;99.90;;;;;;5015478;28;20264;-87
2023/06/19 07:18:28;;;;;;;9.43;6.20;;;22.10;99.90;;;;;;5039671;28;20227;-87
2023/06/19 07:21:05;;;;;;;8.15;6.10;;;22.10;99.90;;;;;;5014651;28;20293;-88
2023/06/19 07:23:44;;;;;;;9.85;5.80;;;22.00;99.90;;;;;;5030254;28;20684;-88
2023/06/19 07:26:13;;;;;;;8.25;5.90;;;22.00;99.90;;;;;;5019776;28;20638;-87
2023/06/19 07:28:42;;;;;;;10.00;7.20;;;21.90;99.90;;;;;;5017068;28;20225;-86
2023/06/19 07:31:09;;;;;;;9.80;6.75;;;21.80;99.90;;;;;;5043772;28;20197;-87
2023/06/19 07:33:37;;;;;;;9.00;6.63;;;21.80;99.90;;;;;;5050860;28;20201;-86
2023/06/19 07:36:04;;;;;;;9.75;6.97;;;21.80;99.90;;;;;;5061282;28;20197;-89
2023/06/19 07:38:33;;;;;;;10.43;7.25;;;21.90;99.90;;;;;;5035481;28;20240;-86
2023/06/19 07:41:01;;;;;;;13.65;8.68;;;22.00;99.90;;;;;;5053278;28;20681;-87
2023/06/19 07:43:29;;;;;;;13.02;9.43;;;21.90;99.90;;;;;;5056071;28;20261;-88
2023/06/19 07:45:56;;;;;;;13.43;9.05;;;21.90;99.90;;;;;;5048794;28;20217;-88
2023/06/19 07:48:26;;;;;;;11.20;8.45;;;;;;;;;;5044548;28;20208;-87
2023/06/19 07:50:57;;;;;;;9.57;8.02;;;22.30;99.90;;;;;;5053622;28;20201;-88
2023/06/19 07:53:24;;;;;;;11.95;7.88;;;22.70;99.90;;;;;;5032298;28;20645;-87
2023/06/19 07:55:54;;;;;;;10.02;7.43;;;;;;;;;;5048771;28;20297;-87
2023/06/19 07:58:22;;;;;;;10.25;7.10;;;23.60;99.90;;;;;;5039353;28;20690;-87
2023/06/19 08:00:49;;;;;;;8.32;6.65;;;24.30;99.90;;;;;;5041786;28;20300;-88
2023/06/19 08:03:16;;;;;;;9.48;7.03;;;25.00;99.90;;;;;;5050188;28;20216;-86
2023/06/19 08:05:46;;;;;;;10.35;8.15;;;25.70;99.90;;;;;;5026670;28;20210;-87
2023/06/19 08:08:14;;;;;;;9.75;6.50;;;25.90;99.90;;;;;;5024172;28;20221;-88
2023/06/19 08:10:45;;;;;;;10.20;6.40;;;25.90;99.90;;;;;;5022166;28;20197;-88
2023/06/19 08:13:12;;;;;;;7.75;6.38;;;26.10;99.90;;;;;;5038828;28;20632;-87
2023/06/19 08:15:40;;;;;;;8.10;6.63;;;26.40;99.90;;;;;;5038730;28;20216;-87
2023/06/19 08:18:09;;;;;;;7.72;6.35;;;26.80;99.90;;;;;;5024303;28;20221;-87
2023/06/19 08:20:57;;;;;;;9.88;6.35;;;27.30;99.90;;;;;;5022703;28;20236;-87
2023/06/19 08:23:29;;;;;;;7.88;6.60;;;27.30;99.90;;;;;;5038943;28;20252;-87
2023/06/19 08:25:58;;;;;;;9.05;7.30;;;27.20;99.90;;;;;;5026239;28;20209;-88
2023/06/19 08:28:26;;;;;;;7.47;6.65;;;26.70;99.90;;;;;;5042137;28;20621;-88
2023/06/19 08:30:54;;;;;;;10.70;7.15;;;26.40;99.90;;;;;;5032665;28;20576;-90
2023/06/19 08:33:30;;;;;;;8.27;6.65;;;26.30;99.90;;;;;;5017537;28;20212;-88
2023/06/19 08:36:02;;;;;;;11.52;7.57;;;26.40;99.90;;;;;;5040846;28;20201;-89
2023/06/19 08:38:37;;;;;;;9.32;7.35;;;26.70;99.90;;;;;;5029810;28;20236;-88
2023/06/19 08:41:07;;;;;;;10.25;8.65;;;27.00;99.90;;;;;;5026727;28;20245;-89
2023/06/19 08:43:44;;;;;;;10.82;8.07;;;27.10;99.90;;;;;;5044259;28;20241;-88
2023/06/19 08:46:21;;;;;;;9.23;7.32;;;27.10;99.90;;;;;;5037304;28;20214;-87
2023/06/19 08:48:53;;;;;;;10.80;8.55;;;26.70;99.90;;;;;;5039348;28;20206;-87
2023/06/19 08:51:30;;;;;;;9.65;7.75;;;26.40;99.90;;;;;;5038280;28;20658;-87
2023/06/19 08:54:06;;;;;;;11.45;8.52;;;26.50;99.90;;;;;;5016639;28;20311;-89
2023/06/19 08:56:34;;;;;;;8.90;7.68;;;26.30;99.90;;;;;;5024283;28;20197;-87
2023/06/19 08:59:17;;;;;;;11.60;8.30;;;26.30;99.90;;;;;;5024171;28;20673;-88
2023/06/19 09:01:52;;;;;;;12.52;8.65;;;26.10;99.90;;;;;;5040832;28;20330;-87
2023/06/19 09:04:28;;;;;;;11.57;8.80;;;26.10;99.90;;;;;;5027371;28;20205;-87
2023/06/19 09:07:02;;;;;;;11.75;9.60;;;25.90;99.90;;;;;;5035009;28;20205;-87
2023/06/19 09:09:32;;;;;;;12.63;9.35;;;26.00;99.90;;;;;;5018058;28;20899;-86
2023/06/19 09:12:06;;;;;;;14.13;12.15;;;25.70;99.90;;;;;;5031469;28;20209;-87
2023/06/19 09:14:42;;;;;;;16.75;12.02;;;25.70;99.90;;;;;;5021458;28;20592;-87
2023/06/19 09:17:19;;;;;;;12.73;11.25;;;25.50;99.90;;;;;;5040192;28;20205;-87
2023/06/19 09:19:48;;;;;;;12.65;11.35;;;25.50;99.90;;;;;;5046834;28;20292;-87
2023/06/19 09:22:22;;;;;;;12.35;11.05;;;25.90;99.90;;;;;;5026034;28;20253;-87
2023/06/19 09:24:53;;;;;;;14.00;11.10;;;26.30;99.90;;;;;;5040362;28;20645;-86
2023/06/19 09:27:23;;;;;;;13.50;11.95;;;26.50;99.90;;;;;;5027150;28;20236;-87
2023/06/19 09:29:54;;;;;;;15.73;13.00;;;26.80;99.90;;;;;;5040165;28;20206;-87
2023/06/19 09:32:35;;;;;;;14.77;12.15;;;26.50;99.90;;;;;;5039423;28;20218;-86
2023/06/19 09:35:04;;;;;;;14.45;12.25;;;26.30;99.90;;;;;;5043694;28;20298;-88
2023/06/19 09:37:31;;;;;;;15.90;13.18;;;26.20;99.90;;;;;;5055089;28;20300;-88
2023/06/19 09:40:00;;;;;;;15.93;12.80;;;26.00;99.90;;;;;;5017566;28;20225;-88
2023/06/19 09:42:32;;;;;;;14.82;11.82;;;26.00;99.90;;;;;;5043390;28;20271;-87
2023/06/19 09:45:08;;;;;;;15.95;12.38;;;25.90;99.90;;;;;;5036464;28;20268;-86
2023/06/19 09:47:41;;;;;;;14.68;11.77;;;25.80;99.90;;;;;;5042871;28;20197;-86
2023/06/19 09:50:12;;;;;;;14.30;10.88;;;25.90;99.90;;;;;;5014939;28;20279;-85
2023/06/19 09:52:42;;;;;;;15.30;11.65;;;26.10;99.90;;;;;;5050665;28;20648;-87
2023/06/19 09:55:12;;;;;;;14.75;12.02;;;26.10;99.90;;;;;;5042606;28;20308;-86
2023/06/19 09:57:41;;;;;;;16.27;13.75;;;26.20;99.90;;;;;;5040621;28;20205;-87
2023/06/19 10:00:12;;;;;;;14.10;11.75;;;26.20;99.90;;;;;;5013360;28;20300;-88
2023/06/19 10:02:44;;;;;;;15.68;12.98;;;26.20;99.90;;;;;;5025958;28;20276;-85
2023/06/19 10:05:13;;;;;;;14.82;12.23;;;26.20;99.90;;;;;;5030058;28;20203;-86
2023/06/19 10:07:44;;;;;;;15.13;11.88;;;26.20;99.90;;;;;;5018867;28;20218;-87
2023/06/19 10:10:22;;;;;;;15.88;11.15;;;26.40;99.90;;;;;;5040937;28;20289;-87
2023/06/19 10:12:55;;;;;;;14.52;10.93;;;26.60;99.90;;;;;;5025189;28;20213;-90
2023/06/19 10:15:47;;;;;;;12.40;10.40;;;26.90;99.90;;;;;;5043533;28;20566;-90
2023/06/19 10:18:19;;;;;;;16.45;11.68;;;27.30;99.90;;;;;;5038080;28;20283;-88
2023/06/19 10:20:47;;;;;;;13.20;10.65;;;27.50;99.90;;;;;;5025994;28;20198;-86
2023/06/19 10:23:21;;;;;;;15.38;10.75;;;27.70;99.90;;;;;;5043076;28;20259;-90
2023/06/19 10:25:57;;;;;;;13.23;10.60;;;27.80;99.90;;;;;;5023663;28;20713;-88
2023/06/19 10:28:31;;;;;;;13.70;10.50;;;27.70;99.90;;;;;;5018706;28;20209;-87
2023/06/19 10:31:00;;;;;;;14.43;11.05;;;27.70;99.90;;;;;;5018470;28;20215;-88
2023/06/19 10:33:40;;;;;;;14.75;12.10;;;27.60;99.90;;;;;;5026532;28;20209;-88
2023/06/19 10:36:36;;;;;;;16.15;11.35;;;27.30;99.90;;;;;;5032973;28;20576;-88
2023/06/19 10:39:07;;;;;;;16.20;12.18;;;27.60;99.90;;;;;;5019684;28;20229;-87
2023/06/19 10:41:37;;;;;;;15.85;13.77;;;27.70;99.90;;;;;;5013953;28;20206;-85
2023/06/19 10:44:08;;;;;;;14.80;12.27;;;27.90;99.90;;;;;;5041962;28;20233;-89
2023/06/19 10:46:36;;;;;;;17.42;12.82;;;27.90;99.90;;;;;;5041432;28;20669;-86
2023/06/19 10:49:07;;;;;;;15.98;12.45;;;28.00;99.90;;;;;;5046817;28;20210;-87
2023/06/19 10:51:38;;;;;;;14.57;12.32;;;27.90;99.90;;;;;;5039077;28;20264;-87
2023/06/19 10:54:09;;;;;;;16.27;13.15;;;28.00;99.90;;;;;;5041676;28;20216;-90
2023/06/19 10:56:48;;;;;;;18.42;13.20;;;28.10;99.90;;;;;;5043922;28;20236;-88
2023/06/19 10:59:29;;;;;;;17.60;13.15;;;28.10;99.90;;;;;;5042122;28;20213;-88
2023/06/19 11:02:13;;;;;;;;;;;;;;;;;;;;;
2023/06/19 11:05:05;;;;;;;14.73;11.77;;;28.10;99.90;;;;;;5023428;28;20225;-90
2023/06/19 11:08:19;;;;;;;16.60;11.77;;;28.10;99.90;;;;;;5032016;28;20291;-85
2023/06/19 11:11:17;;;;;;;;;;;;;;;;;;;;;
2023/06/19 11:13:51;;;;;;;16.42;11.80;;;28.00;99.90;;;;;;5042599;28;20213;-88
2023/06/19 11:16:25;;;;;;;17.17;12.88;;;28.00;99.90;;;;;;5043281;28;20246;-87
2023/06/19 11:18:59;;;;;;;16.23;13.32;;;27.80;99.90;;;;;;5042651;28;20308;-87
2023/06/19 11:21:39;;;;;;;16.65;13.48;;;27.80;99.90;;;;;;5024887;28;20282;-89
2023/06/19 11:24:13;;;;;;;16.55;13.32;;;27.70;99.90;;;;;;5040118;28;20282;-88
2023/06/19 11:26:50;;;;;;;14.57;11.90;;;27.60;99.90;;;;;;5041791;28;20662;-87
2023/06/19 11:29:28;;;;;;;14.50;11.90;;;27.60;99.90;;;;;;5041620;28;20215;-87
2023/06/19 11:32:30;;;;;;;17.83;12.05;;;27.60;99.90;;;;;;5036150;28;20224;-87
2023/06/19 11:35:07;;;;;;;14.88;11.77;;;27.70;99.90;;;;;;5025153;28;20221;-89
2023/06/19 11:37:35;;;;;;;13.35;10.63;;;27.60;99.90;;;;;;5047985;28;20723;-88
2023/06/19 11:40:15;;;;;;;15.82;12.32;;;27.80;99.90;;;;;;5020207;28;20234;-87
2023/06/19 11:42:52;;;;;;;16.08;11.63;;;28.10;99.90;;;;;;5047115;28;20317;-87
2023/06/19 11:45:21;;;;;;;13.70;10.55;;;28.20;99.90;;;;;;5039822;28;20236;-87
2023/06/19 11:47:50;;;;;;;13.55;9.88;;;28.20;99.90;;;;;;5045107;28;20235;-87
2023/06/19 11:50:19;;;;;;;13.35;9.52;;;28.40;99.70;;;;;;5045375;28;20201;-87
2023/06/19 11:52:48;;;;;;;15.52;10.32;;;28.40;99.60;;;;;;5023871;28;20543;-87
2023/06/19 11:55:26;;;;;;;12.13;9.20;;;28.30;99.10;;;;;;5021726;28;20279;-87
2023/06/19 11:57:53;;;;;;;12.05;9.30;;;28.40;98.90;;;;;;5040394;28;20209;-89
2023/06/19 12:00:20;;;;;;;13.63;10.70;;;28.10;98.20;;;;;;5045074;28;20216;-86
2023/06/19 12:02:48;;;;;;;15.43;9.43;;;28.10;98.50;;;;;;5037490;28;20234;-87
2023/06/19 12:05:17;;;;;;;12.85;9.30;;;28.00;98.50;;;;;;5033920;28;20205;-88
2023/06/19 12:07:44;;;;;;;11.70;8.50;;;27.90;98.90;;;;;;5033289;28;20217;-89
2023/06/19 12:10:14;;;;;;;13.38;8.48;;;28.00;98.80;;;;;;5017173;28;20225;-87
2023/06/19 12:12:45;;;;;;;11.20;7.97;;;28.10;98.90;;;;;;5049831;28;20558;-88
2023/06/19 12:15:14;;;;;;;13.27;9.13;;;28.20;98.40;;;;;;5021819;28;20213;-88
2023/06/19 12:17:43;;;;;;;11.95;8.88;;;28.30;98.20;;;;;;5026401;28;20645;-86
2023/06/19 12:20:19;;;;;;;12.45;8.07;;;28.20;97.80;;;;;;5042212;28;20298;-88
2023/06/19 12:22:50;;;;;;;12.27;8.35;;;28.20;97.60;;;;;;5029073;28;20228;-87
2023/06/19 12:25:17;;;;;;;12.68;8.32;;;28.40;97.50;;;;;;5038382;28;20228;-87
2023/06/19 12:27:51;;;;;;;16.30;8.82;;;28.50;97.10;;;;;;5044420;28;20663;-87
2023/06/19 12:30:21;;;;;;;17.48;9.15;;;28.70;97.20;;;;;;5042499;28;20409;-88
2023/06/19 12:32:49;;;;;;;12.10;8.73;;;29.00;97.00;;;;;;5023740;28;20213;-89
2023/06/19 12:35:18;;;;;;;15.48;9.77;;;29.30;96.60;;;;;;5020413;28;20241;-88
2023/06/19 12:37:47;;;;;;;11.73;8.20;;;29.40;96.20;;;;;;5028646;28;20205;-88
2023/06/19 12:40:15;;;;;;;12.55;8.48;;;29.40;95.90;;;;;;5017748;28;20646;-87
2023/06/19 12:42:43;;;;;;;14.23;9.70;;;29.40;95.30;;;;;;5024727;28;20342;-87
2023/06/19 12:45:11;;;;;;;9.95;8.30;;;29.60;95.00;;;;;;5042870;28;20568;-89
2023/06/19 12:47:38;;;;;;;12.90;8.60;;;29.70;94.40;;;;;;5047133;28;20259;-87
2023/06/19 12:50:10;;;;;;;12.60;8.93;;;29.70;94.10;;;;;;5032377;28;20212;-90
2023/06/19 12:52:41;;;;;;;10.25;7.93;;;29.70;94.00;;;;;;5047807;28;20269;-89
2023/06/19 12:55:08;;;;;;;11.13;8.93;;;29.80;93.80;;;;;;5022004;28;20248;-87
2023/06/19 12:57:39;;;;;;;13.48;8.48;;;29.60;93.50;;;;;;5043430;28;20695;-87
2023/06/19 13:00:12;;;;;;;11.05;8.10;;;29.40;93.70;;;;;;5017309;28;20678;-87
2023/06/19 13:02:40;;;;;;;8.73;6.95;;;29.40;93.70;;;;;;5026990;28;20228;-89